Погода Куиссикона неделю

Иньямбане, Мозамбик

05 - 11 марта
  • 05марта
    Сегодня
    +26°
    +34°
    Ясно и безоблачно
    ВремяПогодаТемператураВлажностьДавлениеВетер, м/сВероятность осадков
    02:00Ясно и безоблачно+26°C90 %755 мм1.6 м/с5 %
    05:00Ясно и безоблачно+25°C95 %756 мм1.6 м/с5 %
    08:00Ясно и безоблачно+29°C77 %756 мм2.6 м/с5 %
    11:00Ясно и безоблачно+33°C59 %755 мм3.4 м/с5 %
    14:00Ясно и безоблачно+34°C61 %754 мм5.2 м/с5 %
    17:00Ясно и безоблачно+31°C74 %753 мм5.0 м/с5 %
    20:00Ясно и безоблачно+28°C86 %755 мм3.8 м/с5 %
    23:00Ясно и безоблачно+28°C88 %756 мм4.1 м/с5 %
  • 06марта
    Среда
    +25°
    +35°
    Практически безоблачно
    ВремяПогодаТемператураВлажностьДавлениеВетер, м/сВероятность осадков
    02:00Ясно и безоблачно+27°C88 %755 мм3.6 м/с5 %
    05:00Ясно и безоблачно+26°C91 %755 мм3.4 м/с5 %
    08:00Ясно и безоблачно+29°C78 %756 мм3.0 м/с2 %
    11:00Практически безоблачно+34°C53 %756 мм1.2 м/с2 %
    14:00Практически безоблачно+34°C55 %755 мм4.8 м/с2 %
    17:00Ясно и безоблачно+31°C75 %755 мм4.3 м/с3 %
    20:00Ясно и безоблачно+28°C88 %756 мм2.7 м/с2 %
    23:00Ясно и безоблачно+28°C92 %757 мм2.0 м/с5 %
  • 07марта
    Четверг
    +25°
    +35°
    Ясно и безоблачно
    ВремяПогодаТемператураВлажностьДавлениеВетер, м/сВероятность осадков
    02:00Практически безоблачно+26°C96 %757 мм1.1 м/с5 %
    05:00Облачно с прояснениями+25°C99 %757 мм1.0 м/с17 %
    08:00Практически безоблачно+29°C81 %758 мм2.0 м/с42 %
    11:00Практически безоблачно+33°C55 %757 мм0.8 м/с34 %
    14:00Ясно и безоблачно+34°C57 %756 мм4.4 м/с14 %
    17:00Ясно и безоблачно+31°C74 %755 мм4.2 м/с4 %
    20:00Ясно и безоблачно+28°C87 %757 мм3.3 м/с5 %
    23:00Небольшая облачность+28°C88 %758 мм2.5 м/с5 %
  • 08марта
    Пятница
    +26°
    +35°
    Ясно и безоблачно
    ВремяПогодаТемператураВлажностьДавлениеВетер, м/сВероятность осадков
    02:00Ясно и безоблачно+27°C93 %756 мм1.2 м/с16 %
    05:00Ясно и безоблачно+26°C96 %756 мм2.1 м/с19 %
    08:00Практически безоблачно+29°C77 %757 мм2.2 м/с25 %
    11:00Ясно и безоблачно+33°C56 %756 мм1.6 м/с14 %
    14:00Ясно и безоблачно+35°C52 %754 мм3.1 м/с16 %
    17:00Ясно и безоблачно+31°C66 %755 мм4.2 м/с11 %
    20:00Ясно и безоблачно+28°C85 %756 мм3.0 м/с7 %
    23:00Ясно и безоблачно+28°C90 %757 мм2.2 м/с4 %
Мы используем cookies
Соглашаюсь